Time;durP1;ratioP1;P1;durP2;ratioP2;P2;SDS_P1;SDS_P2;PMS_P1;PMS_P2;Temp;Humidity;BMP_temperature;BMP_pressure;BME280_temperature;BME280_humidity;BME280_pressure;Samples;Min_cycle;Max_cycle;Signal;HPM_P1;HPM_P2
2022/09/08 00:00:15;;;;;;;3.43;1.40;;;;;;;;;;5050032;28;20052;-64
2022/09/08 00:02:41;;;;;;;11.43;1.70;;;;;;;;;;5046367;28;20310;-61
2022/09/08 00:05:09;;;;;;;2.13;1.20;;;;;;;;;;5056521;28;20098;-69
2022/09/08 00:07:38;;;;;;;1.80;1.13;;;;;;;;;;5049481;28;20135;-70
2022/09/08 00:10:04;;;;;;;;;;;;;;;;;;5067552;28;20045;-72
2022/09/08 00:12:34;;;;;;;5.65;1.38;;;;;;;;;;5057554;28;19932;-61
2022/09/08 00:15:01;;;;;;;3.33;1.30;;;;;;;;;;5039686;28;20138;-69
2022/09/08 00:17:29;;;;;;;3.53;1.20;;;;;;;;;;5040880;28;20049;-68
2022/09/08 00:19:55;;;;;;;3.25;1.15;;;;;;;;;;5066753;28;20052;-62
2022/09/08 00:22:22;;;;;;;5.00;1.40;;;;;;;;;;5062091;28;20091;-74
2022/09/08 00:24:48;;;;;;;6.45;1.70;;;;;;;;;;5066673;28;20068;-70
2022/09/08 00:27:16;;;;;;;4.57;1.25;;;;;;;;;;5073583;28;20117;-68
2022/09/08 00:29:44;;;;;;;5.40;1.30;;;;;;;;;;5069788;28;20081;-63
2022/09/08 00:32:10;;;;;;;5.78;1.50;;;;;;;;;;5066643;28;20056;-67
2022/09/08 00:34:37;;;;;;;2.67;1.30;;;;;;;;;;5070389;28;20052;-68
2022/09/08 00:37:05;;;;;;;2.20;1.40;;;;;;;;;;5069700;28;20048;-64
2022/09/08 00:39:31;;;;;;;1.83;1.17;;;;;;;;;;5062515;28;20127;-71
2022/09/08 00:41:58;;;;;;;5.35;1.77;;;;;;;;;;5067148;28;20060;-72
2022/09/08 00:44:39;;;;;;;4.63;1.48;;;;;;;;;;5066011;28;20071;-63
2022/09/08 00:47:15;;;;;;;5.00;1.40;;;;;;;;;;5070490;28;20052;-72
2022/09/08 00:49:42;;;;;;;2.70;1.13;;;;;;;;;;5065376;28;20052;-61
2022/09/08 00:52:09;;;;;;;4.70;1.45;;;;;;;;;;5073666;28;20132;-71
2022/09/08 00:54:36;;;;;;;8.10;2.28;;;;;;;;;;5066529;28;20052;-70
2022/09/08 00:57:03;;;;;;;3.07;1.20;;;;;;;;;;5070178;28;20048;-74
2022/09/08 00:59:33;;;;;;;8.88;1.77;;;;;;;;;;5069233;28;20052;-67
2022/09/08 01:01:59;;;;;;;2.95;1.30;;;;;;;;;;5073755;28;20056;-67
2022/09/08 01:04:28;;;;;;;7.75;1.60;;;;;;;;;;5070139;28;20079;-57
2022/09/08 01:12:45;;;;;;;3.08;1.30;;;;;;;;;;5069431;28;20048;-68
2022/09/08 01:15:14;;;;;;;2.38;1.13;;;;;;;;;;5064919;28;20060;-59
2022/09/08 01:17:41;;;;;;;9.73;1.88;;;;;;;;;;5070065;28;20067;-70
2022/09/08 01:20:10;;;;;;;5.50;1.55;;;;;;;;;;5065738;28;20048;-62
2022/09/08 01:22:53;;;;;;;4.63;1.55;;;;;;;;;;5070067;28;20348;-61
2022/09/08 01:25:27;;;;;;;3.55;1.33;;;;;;;;;;5056629;28;20087;-66
2022/09/08 01:27:57;;;;;;;7.28;1.92;;;;;;;;;;5055364;28;20044;-64
2022/09/08 01:30:24;;;;;;;4.30;1.40;;;;;;;;;;5058987;28;20048;-68
2022/09/08 01:32:50;;;;;;;2.72;1.20;;;;;;;;;;5069851;28;20056;-68
2022/09/08 01:35:33;;;;;;;3.72;1.30;;;;;;;;;;5059658;28;20059;-62
2022/09/08 01:38:00;;;;;;;2.72;1.33;;;;;;;;;;5049725;28;20049;-62
2022/09/08 01:40:27;;;;;;;2.97;1.05;;;;;;;;;;5052389;28;20044;-63
2022/09/08 01:42:54;;;;;;;4.15;1.08;;;;;;;;;;5070988;28;20106;-73
2022/09/08 01:45:23;;;;;;;5.63;1.30;;;;;;;;;;5067909;28;20056;-60
2022/09/08 01:47:50;;;;;;;2.88;1.05;;;;;;;;;;5072988;28;20089;-56
2022/09/08 01:50:18;;;;;;;4.32;1.38;;;;;;;;;;5063969;28;20048;-71
2022/09/08 01:52:44;;;;;;;4.35;1.17;;;;;;;;;;5032355;28;20049;-68
2022/09/08 01:55:11;;;;;;;3.15;1.17;;;;;;;;;;5032701;28;20061;-64
2022/09/08 01:57:37;;;;;;;2.47;1.08;;;;;;;;;;5064777;28;20053;-69
2022/09/08 02:00:05;;;;;;;5.68;1.10;;;;;;;;;;5067447;28;20063;-62
2022/09/08 02:02:33;;;;;;;3.53;1.20;;;;;;;;;;5051141;28;20056;-61
2022/09/08 02:05:00;;;;;;;;;;;;;;;;;;5070097;28;20129;-70
2022/09/08 02:07:26;;;;;;;2.42;1.10;;;;;;;;;;5048831;28;19932;-60
2022/09/08 02:09:53;;;;;;;2.35;1.08;;;;;;;;;;5053223;28;20049;-60
2022/09/08 02:12:20;;;;;;;4.18;1.30;;;;;;;;;;5038235;28;20139;-58
2022/09/08 02:14:47;;;;;;;4.72;1.10;;;;;;;;;;5050612;28;20044;-58
2022/09/08 02:17:13;;;;;;;5.15;1.10;;;;;;;;;;5047613;28;20138;-62
2022/09/08 02:19:41;;;;;;;3.25;1.10;;;;;;;;;;5052301;28;20048;-65
2022/09/08 02:22:08;;;;;;;5.60;1.88;;;;;;;;;;5057484;28;20049;-68
2022/09/08 02:24:34;;;;;;;3.05;1.10;;;;;;;;;;5049412;28;20068;-67
2022/09/08 02:27:01;;;;;;;3.42;1.13;;;;;;;;;;5046593;28;20076;-64
2022/09/08 02:29:28;;;;;;;3.50;1.25;;;;;;;;;;5048150;28;20064;-53
2022/09/08 02:31:54;;;;;;;2.00;0.90;;;;;;;;;;5045779;28;20107;-60
2022/09/08 02:34:21;;;;;;;1.05;0.80;;;;;;;;;;5048764;28;20057;-61
2022/09/08 02:36:50;;;;;;;2.30;1.08;;;;;;;;;;5048806;28;20068;-60
2022/09/08 02:39:18;;;;;;;1.58;0.98;;;;;;;;;;5066138;28;20066;-56
2022/09/08 02:41:44;;;;;;;2.25;1.08;;;;;;;;;;5068503;28;20040;-61
2022/09/08 02:44:12;;;;;;;5.70;1.50;;;;;;;;;;5064119;28;20068;-56
2022/09/08 02:46:39;;;;;;;3.53;1.30;;;;;;;;;;5060791;28;20139;-58
2022/09/08 02:49:05;;;;;;;3.60;0.90;;;;;;;;;;5051145;28;20080;-56
2022/09/08 02:51:32;;;;;;;3.25;1.23;;;;;;;;;;5048794;28;20052;-66
2022/09/08 02:54:00;;;;;;;1.77;0.90;;;;;;;;;;5056908;28;20060;-58
2022/09/08 02:56:27;;;;;;;5.47;1.75;;;;;;;;;;5068457;28;20052;-60
2022/09/08 02:58:54;;;;;;;4.28;1.33;;;;;;;;;;5056224;28;20049;-56
2022/09/08 03:01:21;;;;;;;3.80;1.38;;;;;;;;;;5048228;28;20053;-53
2022/09/08 03:03:48;;;;;;;4.63;1.20;;;;;;;;;;5044725;28;20099;-67
2022/09/08 03:06:14;;;;;;;4.00;1.10;;;;;;;;;;5058396;28;20113;-67
2022/09/08 03:08:41;;;;;;;2.28;0.95;;;;;;;;;;5064035;28;20056;-66
2022/09/08 03:11:09;;;;;;;1.90;1.08;;;;;;;;;;5063515;28;20043;-69
2022/09/08 03:13:37;;;;;;;5.57;1.10;;;;;;;;;;5057562;28;20065;-61
2022/09/08 03:16:03;;;;;;;3.93;1.60;;;;;;;;;;5068239;28;20044;-62
2022/09/08 03:18:30;;;;;;;2.92;1.08;;;;;;;;;;5064415;28;20049;-56
2022/09/08 03:21:00;;;;;;;2.35;1.23;;;;;;;;;;5068491;28;20059;-55
2022/09/08 03:23:27;;;;;;;4.68;1.00;;;;;;;;;;5069808;28;20139;-64
2022/09/08 03:25:54;;;;;;;7.65;1.55;;;;;;;;;;5045676;28;20049;-70
2022/09/08 03:28:23;;;;;;;3.95;1.10;;;;;;;;;;5047549;28;20106;-65
2022/09/08 03:30:50;;;;;;;4.25;1.15;;;;;;;;;;5043594;28;20056;-60
2022/09/08 03:33:16;;;;;;;3.13;1.20;;;;;;;;;;5064416;28;20048;-66
2022/09/08 03:35:43;;;;;;;2.33;1.00;;;;;;;;;;5063870;28;20052;-66
2022/09/08 03:38:10;;;;;;;5.85;1.55;;;;;;;;;;5067350;28;20114;-70
2022/09/08 03:40:39;;;;;;;3.20;0.98;;;;;;;;;;5062749;28;20110;-66
2022/09/08 03:43:06;;;;;;;2.28;1.00;;;;;;;;;;5067150;28;20056;-67
2022/09/08 03:45:34;;;;;;;7.22;2.35;;;;;;;;;;5054776;28;20072;-64
2022/09/08 03:48:00;;;;;;;2.90;1.40;;;;;;;;;;5047171;28;20048;-57
2022/09/08 03:50:27;;;;;;;2.67;1.02;;;;;;;;;;5043820;28;20363;-58
2022/09/08 03:52:53;;;;;;;2.60;1.02;;;;;;;;;;5047285;28;20045;-66
2022/09/08 03:55:20;;;;;;;3.05;1.00;;;;;;;;;;5047031;28;20127;-61
2022/09/08 03:57:46;;;;;;;4.63;1.08;;;;;;;;;;5067394;28;20048;-54
2022/09/08 04:00:14;;;;;;;4.55;1.30;;;;;;;;;;5062216;28;20057;-60
2022/09/08 04:02:42;;;;;;;3.15;1.35;;;;;;;;;;5065828;28;20040;-62
2022/09/08 04:05:09;;;;;;;3.65;1.27;;;;;;;;;;5083116;28;20068;-70
2022/09/08 04:07:38;;;;;;;5.60;1.40;;;;;;;;;;5079383;28;20057;-58
2022/09/08 04:10:05;;;;;;;5.97;1.50;;;;;;;;;;5066305;28;20041;-56
2022/09/08 04:12:32;;;;;;;3.55;1.35;;;;;;;;;;5046431;28;20059;-52
2022/09/08 04:14:59;;;;;;;5.90;1.33;;;;;;;;;;5033730;28;20053;-56
2022/09/08 04:17:28;;;;;;;6.75;1.50;;;;;;;;;;5057462;28;20051;-52
2022/09/08 04:19:56;;;;;;;7.03;1.80;;;;;;;;;;5070337;28;20047;-54
2022/09/08 04:22:24;;;;;;;5.43;1.60;;;;;;;;;;5066445;28;20052;-55
2022/09/08 04:24:51;;;;;;;4.25;1.50;;;;;;;;;;5067907;28;20114;-53
2022/09/08 04:27:18;;;;;;;5.28;1.50;;;;;;;;;;5065993;28;20052;-54
2022/09/08 04:29:44;;;;;;;3.58;1.20;;;;;;;;;;5068681;28;20131;-62
2022/09/08 04:32:12;;;;;;;4.03;1.30;;;;;;;;;;5062663;28;20048;-67
2022/09/08 04:34:38;;;;;;;4.72;1.10;;;;;;;;;;5066654;28;20139;-64
2022/09/08 04:37:07;;;;;;;3.20;1.00;;;;;;;;;;5066174;28;20101;-65
2022/09/08 04:39:34;;;;;;;4.45;1.60;;;;;;;;;;5069489;28;20054;-56
2022/09/08 04:42:00;;;;;;;1.80;0.95;;;;;;;;;;5062231;28;20056;-56
2022/09/08 04:44:27;;;;;;;3.10;1.13;;;;;;;;;;5066747;28;20049;-64
2022/09/08 04:46:53;;;;;;;4.82;1.65;;;;;;;;;;5067469;28;20048;-55
2022/09/08 04:49:20;;;;;;;3.05;1.15;;;;;;;;;;5048452;28;20044;-58
2022/09/08 04:51:46;;;;;;;9.70;2.30;;;;;;;;;;5049350;28;20040;-61
2022/09/08 04:54:14;;;;;;;3.22;1.20;;;;;;;;;;5063924;28;20056;-63
2022/09/08 04:56:41;;;;;;;9.20;2.95;;;;;;;;;;5070142;28;20093;-67
2022/09/08 04:59:07;;;;;;;5.25;1.30;;;;;;;;;;5064181;28;20032;-66
2022/09/08 05:01:35;;;;;;;2.10;1.20;;;;;;;;;;5064552;28;20155;-58
2022/09/08 05:04:03;;;;;;;4.80;1.85;;;;;;;;;;5058178;28;20066;-62
2022/09/08 05:06:35;;;;;;;3.65;1.45;;;;;;;;;;5060667;28;20067;-68
2022/09/08 05:09:03;;;;;;;3.78;1.30;;;;;;;;;;5061560;28;20057;-66
2022/09/08 05:11:33;;;;;;;5.18;1.50;;;;;;;;;;5061792;28;20057;-63
2022/09/08 05:13:59;;;;;;;8.70;2.30;;;;;;;;;;5059895;28;20055;-68
2022/09/08 05:16:27;;;;;;;5.00;1.70;;;;;;;;;;5052774;28;20049;-65
2022/09/08 05:18:54;;;;;;;5.25;1.15;;;;;;;;;;5056806;28;20110;-62
2022/09/08 05:21:21;;;;;;;3.10;1.13;;;;;;;;;;5055765;28;20059;-68
2022/09/08 05:23:48;;;;;;;2.17;0.98;;;;;;;;;;5057341;28;20540;-67
2022/09/08 05:26:16;;;;;;;3.58;1.25;;;;;;;;;;5044956;28;20053;-69
2022/09/08 05:28:44;;;;;;;5.60;1.70;;;;;;;;;;5042628;28;20142;-60
2022/09/08 05:31:12;;;;;;;2.15;0.88;;;;;;;;;;5044120;28;20060;-64
2022/09/08 05:33:39;;;;;;;11.07;4.05;;;;;;;;;;5044214;28;20045;-60
2022/09/08 05:36:09;;;;;;;3.38;1.55;;;;;;;;;;5040851;28;20049;-55
2022/09/08 05:38:36;;;;;;;6.72;1.65;;;;;;;;;;5032601;28;20136;-63
2022/09/08 05:41:02;;;;;;;4.28;1.35;;;;;;;;;;5044944;28;20049;-65
2022/09/08 05:43:29;;;;;;;7.70;1.45;;;;;;;;;;5049728;28;20045;-57
2022/09/08 05:45:57;;;;;;;5.70;1.77;;;;;;;;;;5046087;28;20049;-64
2022/09/08 05:48:24;;;;;;;4.20;1.73;;;;;;;;;;5049356;28;20103;-67
2022/09/08 05:50:50;;;;;;;5.07;1.45;;;;;;;;;;5045031;28;20099;-66
2022/09/08 05:53:17;;;;;;;4.50;1.33;;;;;;;;;;5048586;28;20049;-60
2022/09/08 05:55:43;;;;;;;4.68;1.30;;;;;;;;;;5039166;28;20045;-66
2022/09/08 05:58:11;;;;;;;8.73;1.92;;;;;;;;;;5049599;28;20059;-64
2022/09/08 06:00:38;;;;;;;3.97;1.27;;;;;;;;;;5044901;28;20081;-61
2022/09/08 06:03:06;;;;;;;2.95;1.10;;;;;;;;;;5048833;28;20057;-67
2022/09/08 06:05:35;;;;;;;3.45;1.20;;;;;;;;;;5045402;28;20060;-62
2022/09/08 06:08:02;;;;;;;4.00;1.42;;;;;;;;;;5048894;28;20073;-63
2022/09/08 06:10:28;;;;;;;2.80;1.27;;;;;;;;;;5046033;28;20063;-67
2022/09/08 06:12:55;;;;;;;3.17;1.45;;;;;;;;;;5048974;28;20084;-64
2022/09/08 06:15:22;;;;;;;5.57;2.00;;;;;;;;;;5046597;28;20064;-67
2022/09/08 06:17:48;;;;;;;2.85;1.42;;;;;;;;;;5047847;28;20057;-67
2022/09/08 06:20:18;;;;;;;5.07;1.50;;;;;;;;;;5049280;28;20144;-61
2022/09/08 06:22:44;;;;;;;6.28;1.48;;;;;;;;;;5026817;28;20041;-64
2022/09/08 06:25:11;;;;;;;3.33;1.25;;;;;;;;;;5023395;28;20087;-64
2022/09/08 06:27:41;;;;;;;4.38;1.63;;;;;;;;;;5040684;28;20052;-62
2022/09/08 06:30:11;;;;;;;2.40;1.23;;;;;;;;;;5048361;28;20060;-64
2022/09/08 06:32:39;;;;;;;7.78;2.08;;;;;;;;;;5055429;28;20107;-65
2022/09/08 06:35:10;;;;;;;6.13;1.75;;;;;;;;;;5049077;28;20053;-62
2022/09/08 06:37:41;;;;;;;5.47;1.70;;;;;;;;;;5033876;28;20056;-64
2022/09/08 06:40:11;;;;;;;5.97;2.97;;;;;;;;;;5028825;28;20051;-66
2022/09/08 06:42:43;;;;;;;8.90;3.22;;;;;;;;;;5041383;28;20055;-67
2022/09/08 06:45:14;;;;;;;6.38;1.50;;;;;;;;;;5028593;28;20065;-58
2022/09/08 06:47:44;;;;;;;4.90;1.65;;;;;;;;;;5055999;28;20056;-66
2022/09/08 06:50:13;;;;;;;5.85;1.95;;;;;;;;;;5048632;28;20049;-66
2022/09/08 06:52:39;;;;;;;;;;;;;;;;;;5044495;28;20041;-55
2022/09/08 06:55:13;;;;;;;7.43;2.35;;;;;;;;;;5048212;28;19929;-56
2022/09/08 06:57:45;;;;;;;4.97;1.88;;;;;;;;;;5044240;28;20045;-66
2022/09/08 07:00:14;;;;;;;5.05;1.52;;;;;;;;;;5048343;28;20064;-66
2022/09/08 07:02:48;;;;;;;4.00;1.20;;;;;;;;;;5043753;28;20132;-65
2022/09/08 07:05:20;;;;;;;6.05;1.88;;;;;;;;;;5037169;28;20053;-60
2022/09/08 07:07:50;;;;;;;8.50;2.67;;;;;;;;;;5029150;28;20053;-60
2022/09/08 07:10:21;;;;;;;4.13;1.38;;;;;;;;;;5051682;28;20075;-67
2022/09/08 07:12:52;;;;;;;6.68;1.60;;;;;;;;;;5046392;28;20115;-63
2022/09/08 07:15:22;;;;;;;4.13;1.52;;;;;;;;;;5060731;28;20056;-64
2022/09/08 07:17:51;;;;;;;3.05;1.30;;;;;;;;;;5068377;28;20055;-61
2022/09/08 07:20:18;;;;;;;4.10;1.40;;;;;;;;;;5021847;28;20069;-68
2022/09/08 07:22:48;;;;;;;4.72;1.58;;;;;;;;;;5027718;28;20049;-62
2022/09/08 07:25:21;;;;;;;3.80;1.67;;;;;;;;;;5037479;28;20058;-58
2022/09/08 07:27:52;;;;;;;4.20;1.30;;;;;;;;;;5051204;28;20048;-63
2022/09/08 07:30:19;;;;;;;2.75;1.42;;;;;;;;;;5047007;28;20058;-62
2022/09/08 07:32:47;;;;;;;3.97;1.33;;;;;;;;;;5050428;28;20159;-62
2022/09/08 07:35:14;;;;;;;;;;;;;;;;;;5032105;28;20048;-58
2022/09/08 07:37:43;;;;;;;2.42;1.00;;;;;;;;;;5031325;28;19960;-59
2022/09/08 07:40:15;;;;;;;4.05;1.92;;;;;;;;;;5027278;28;20045;-60
2022/09/08 07:42:43;;;;;;;4.60;1.67;;;;;;;;;;5032417;28;20052;-67
2022/09/08 07:45:11;;;;;;;2.35;1.13;;;;;;;;;;5035294;28;20048;-64
2022/09/08 07:47:51;;;;;;;2.15;1.10;;;;;;;;;;5037467;28;20076;-57
2022/09/08 07:50:23;;;;;;;2.78;1.33;;;;;;;;;;5037214;28;20055;-66
2022/09/08 07:52:57;;;;;;;7.13;2.53;;;;;;;;;;5050871;28;20052;-64
2022/09/08 07:55:26;;;;;;;4.07;1.40;;;;;;;;;;5011291;28;20052;-62
2022/09/08 07:58:01;;;;;;;4.22;1.30;;;;;;;;;;5049391;28;20083;-57
2022/09/08 08:00:34;;;;;;;3.25;1.13;;;;;;;;;;5041933;28;20051;-68
2022/09/08 08:03:08;;;;;;;3.63;1.58;;;;;;;;;;5045518;28;20061;-62
2022/09/08 08:05:38;;;;;;;5.50;1.67;;;;;;;;;;5028570;28;20052;-59
2022/09/08 08:08:10;;;;;;;2.58;1.20;;;;;;;;;;5032121;28;20057;-57
2022/09/08 08:10:39;;;;;;;2.45;1.60;;;;;;;;;;5037902;28;20132;-67
2022/09/08 08:13:11;;;;;;;5.82;1.70;;;;;;;;;;5033034;28;20278;-60
2022/09/08 08:15:40;;;;;;;4.20;1.80;;;;;;;;;;5007495;28;20080;-62
2022/09/08 08:18:11;;;;;;;3.35;1.85;;;;;;;;;;5027128;28;20144;-57
2022/09/08 08:20:50;;;;;;;5.07;2.22;;;;;;;;;;5026401;28;20136;-69
2022/09/08 08:23:28;;;;;;;7.00;3.28;;;;;;;;;;5046691;28;20127;-60
2022/09/08 08:25:59;;;;;;;3.25;1.13;;;;;;;;;;5042598;28;20053;-61
2022/09/08 08:28:31;;;;;;;4.78;1.42;;;;;;;;;;5030538;28;20052;-62
2022/09/08 08:31:06;;;;;;;8.63;2.47;;;;;;;;;;5040222;28;20122;-61
2022/09/08 08:33:36;;;;;;;6.15;2.72;;;;;;;;;;5011094;28;20104;-66
2022/09/08 08:36:05;;;;;;;6.68;2.10;;;;;;;;;;5023291;28;20057;-66
2022/09/08 08:38:33;;;;;;;2.67;1.45;;;;;;;;;;5026776;28;20057;-65
2022/09/08 08:41:00;;;;;;;3.50;1.00;;;;;;;;;;5008541;28;20053;-58
2022/09/08 08:43:37;;;;;;;11.07;2.63;;;;;;;;;;5025955;28;20152;-65
2022/09/08 08:46:21;;;;;;;4.68;1.60;;;;;;;;;;5018501;28;20058;-57
2022/09/08 08:48:58;;;;;;;4.45;1.98;;;;;;;;;;5009000;28;20052;-61
2022/09/08 08:51:32;;;;;;;3.92;1.73;;;;;;;;;;5008082;28;20072;-64
2022/09/08 08:54:04;;;;;;;5.20;1.48;;;;;;;;;;5028261;28;20136;-56
2022/09/08 08:56:38;;;;;;;6.22;1.40;;;;;;;;;;5046099;28;20057;-64
2022/09/08 08:59:11;;;;;;;3.15;1.50;;;;;;;;;;5027060;28;20054;-71
2022/09/08 09:01:41;;;;;;;4.35;1.73;;;;;;;;;;5026676;28;20087;-71
2022/09/08 09:04:32;;;;;;;6.03;2.10;;;;;;;;;;5033728;28;20132;-59
2022/09/08 09:07:07;;;;;;;6.40;2.05;;;;;;;;;;5026660;28;20041;-66
2022/09/08 09:09:49;;;;;;;2.08;1.38;;;;;;;;;;5033912;28;20053;-70
2022/09/08 09:12:38;;;;;;;4.32;2.10;;;;;;;;;;5026173;28;20120;-67
2022/09/08 09:15:27;;;;;;;4.90;1.20;;;;;;;;;;5030694;28;20054;-62
2022/09/08 09:18:26;;;;;;;3.78;1.77;;;;;;;;;;5031582;28;20056;-60
2022/09/08 09:20:56;;;;;;;10.20;1.50;;;;;;;;;;4973303;28;20057;-55
2022/09/08 09:23:32;;;;;;;8.20;2.42;;;;;;;;;;4966721;28;20055;-62
2022/09/08 09:25:59;;;;;;;4.30;1.80;;;;;;;;;;4991846;28;20054;-53
2022/09/08 09:28:51;;;;;;;6.35;1.55;;;;;;;;;;5031220;28;20048;-56
2022/09/08 09:31:34;;;;;;;3.90;1.67;;;;;;;;;;5035735;28;20127;-67
2022/09/08 09:34:09;;;;;;;6.53;2.00;;;;;;;;;;5045987;28;20051;-72
2022/09/08 09:36:48;;;;;;;5.90;1.70;;;;;;;;;;5050223;28;20244;-68
2022/09/08 09:39:30;;;;;;;3.90;1.60;;;;;;;;;;5041091;28;20060;-70
2022/09/08 09:42:06;;;;;;;3.15;1.17;;;;;;;;;;5032437;28;20103;-72
2022/09/08 09:44:38;;;;;;;6.38;1.58;;;;;;;;;;5039823;28;20060;-73
2022/09/08 09:47:15;;;;;;;6.35;1.75;;;;;;;;;;5045427;28;20521;-71
2022/09/08 09:49:53;;;;;;;5.65;1.98;;;;;;;;;;5028357;28;20053;-67
2022/09/08 09:52:24;;;;;;;1.80;1.00;;;;;;;;;;5031182;28;20111;-72
2022/09/08 09:54:58;;;;;;;3.70;1.42;;;;;;;;;;5031459;28;20052;-66
2022/09/08 09:57:45;;;;;;;4.82;1.50;;;;;;;;;;5020202;28;20060;-66
2022/09/08 10:00:13;;;;;;;2.53;1.40;;;;;;;;;;5020906;28;20049;-69
2022/09/08 10:02:56;;;;;;;4.38;1.83;;;;;;;;;;5042654;28;20057;-63
2022/09/08 10:05:37;;;;;;;6.28;2.03;;;;;;;;;;5036361;28;20057;-67
2022/09/08 10:08:24;;;;;;;5.45;2.20;;;;;;;;;;5011071;28;20116;-67
2022/09/08 10:10:58;;;;;;;2.88;1.52;;;;;;;;;;5010757;28;20056;-65
2022/09/08 10:13:39;;;;;;;4.78;1.75;;;;;;;;;;5029266;28;20050;-66
2022/09/08 10:16:25;;;;;;;4.00;1.80;;;;;;;;;;5002020;28;20060;-72
2022/09/08 10:19:07;;;;;;;4.95;1.50;;;;;;;;;;5009829;28;20053;-69
2022/09/08 10:21:59;;;;;;;4.63;1.50;;;;;;;;;;5019339;28;20239;-66
2022/09/08 10:24:53;;;;;;;6.10;1.85;;;;;;;;;;5027382;28;20053;-59
2022/09/08 10:27:38;;;;;;;4.38;1.88;;;;;;;;;;5006419;28;20084;-69
2022/09/08 10:30:23;;;;;;;7.30;2.38;;;;;;;;;;5044651;28;20083;-71
2022/09/08 10:32:59;;;;;;;4.85;1.67;;;;;;;;;;5032117;28;20056;-68
2022/09/08 10:35:42;;;;;;;5.47;1.90;;;;;;;;;;5028638;28;20057;-68
2022/09/08 10:38:34;;;;;;;6.28;1.77;;;;;;;;;;5026922;28;20108;-73
2022/09/08 10:41:13;;;;;;;5.10;1.80;;;;;;;;;;5007120;28;20077;-72
2022/09/08 10:44:02;;;;;;;4.55;1.95;;;;;;;;;;5041661;28;20056;-71
2022/09/08 10:46:43;;;;;;;4.28;2.17;;;;;;;;;;5044524;28;20052;-69
2022/09/08 10:49:30;;;;;;;4.72;2.13;;;;;;;;;;5044832;28;20057;-66
2022/09/08 10:52:07;;;;;;;5.78;2.20;;;;;;;;;;5016550;28;20144;-69
2022/09/08 10:54:54;;;;;;;5.40;1.77;;;;;;;;;;5028682;28;20058;-66
2022/09/08 10:57:30;;;;;;;4.72;2.10;;;;;;;;;;5025120;28;20041;-69
2022/09/08 11:00:04;;;;;;;5.78;2.50;;;;;;;;;;5027807;28;20062;-73
2022/09/08 11:02:32;;;;;;;3.13;1.52;;;;;;;;;;5023218;28;20057;-63
2022/09/08 11:05:17;;;;;;;5.68;1.90;;;;;;;;;;5028883;28;20057;-67
2022/09/08 11:07:57;;;;;;;6.30;1.90;;;;;;;;;;5033745;28;20161;-67
2022/09/08 11:10:31;;;;;;;5.68;1.80;;;;;;;;;;5049960;28;20135;-63
2022/09/08 11:13:12;;;;;;;4.47;1.60;;;;;;;;;;5045107;28;20053;-66
2022/09/08 11:15:56;;;;;;;3.42;1.33;;;;;;;;;;5031845;28;20118;-63
2022/09/08 11:18:30;;;;;;;4.10;1.40;;;;;;;;;;5002677;28;20084;-63
2022/09/08 11:20:59;;;;;;;5.43;1.40;;;;;;;;;;5048011;28;20121;-69
2022/09/08 11:23:28;;;;;;;3.47;1.30;;;;;;;;;;5044154;28;20048;-70
2022/09/08 11:26:04;;;;;;;2.83;1.30;;;;;;;;;;5047949;28;20110;-66
2022/09/08 11:28:36;;;;;;;7.15;1.63;;;;;;;;;;5044256;28;20064;-68
2022/09/08 11:31:07;;;;;;;6.90;2.00;;;;;;;;;;5048143;28;20053;-68
2022/09/08 11:33:40;;;;;;;7.93;2.15;;;;;;;;;;5020537;28;20057;-55
2022/09/08 11:36:18;;;;;;;4.60;1.50;;;;;;;;;;5011829;28;20088;-69
2022/09/08 11:38:52;;;;;;;4.47;1.35;;;;;;;;;;5034221;28;20048;-68
2022/09/08 11:41:39;;;;;;;3.33;1.20;;;;;;;;;;5067511;28;20116;-65
2022/09/08 11:44:20;;;;;;;4.80;2.08;;;;;;;;;;5043378;28;20044;-72
2022/09/08 11:47:00;;;;;;;7.03;1.27;;;;;;;;;;5035554;28;20061;-66
2022/09/08 11:49:36;;;;;;;6.07;1.83;;;;;;;;;;5042686;28;20067;-67
2022/09/08 11:52:13;;;;;;;6.93;1.50;;;;;;;;;;5043799;28;20151;-69
2022/09/08 11:54:51;;;;;;;3.05;1.20;;;;;;;;;;5040754;28;20080;-72
2022/09/08 11:57:26;;;;;;;5.82;1.33;;;;;;;;;;5046689;28;20056;-66
2022/09/08 12:00:04;;;;;;;3.75;1.20;;;;;;;;;;5042041;28;20140;-60
2022/09/08 12:02:55;;;;;;;6.78;1.38;;;;;;;;;;5046139;28;20079;-62
2022/09/08 12:05:28;;;;;;;5.90;1.27;;;;;;;;;;5042642;28;20053;-72
2022/09/08 12:08:07;;;;;;;4.15;1.20;;;;;;;;;;5046000;28;20048;-73
2022/09/08 12:10:39;;;;;;;5.35;1.30;;;;;;;;;;5042880;28;20059;-69
2022/09/08 12:13:11;;;;;;;4.20;1.23;;;;;;;;;;5047192;28;20044;-70
2022/09/08 12:15:56;;;;;;;3.00;1.00;;;;;;;;;;5042975;28;20056;-73
2022/09/08 12:18:30;;;;;;;8.18;1.15;;;;;;;;;;5046441;28;20126;-70
2022/09/08 12:21:14;;;;;;;4.40;1.20;;;;;;;;;;5042031;28;20115;-62
2022/09/08 12:23:46;;;;;;;5.85;1.35;;;;;;;;;;5045255;28;20049;-71
2022/09/08 12:26:17;;;;;;;3.22;1.10;;;;;;;;;;5041970;28;20049;-70
2022/09/08 12:29:01;;;;;;;5.20;1.33;;;;;;;;;;5046168;28;20056;-63
2022/09/08 12:31:36;;;;;;;4.82;1.10;;;;;;;;;;5043920;28;20137;-63
2022/09/08 12:34:20;;;;;;;6.35;1.15;;;;;;;;;;5049395;28;20052;-64
2022/09/08 12:36:49;;;;;;;7.63;1.45;;;;;;;;;;5041381;28;20053;-70
2022/09/08 12:39:27;;;;;;;2.75;1.00;;;;;;;;;;5045972;28;20068;-62
2022/09/08 12:42:03;;;;;;;7.75;1.33;;;;;;;;;;5042711;28;20059;-68
2022/09/08 12:44:39;;;;;;;3.63;1.10;;;;;;;;;;5047702;28;20052;-66
2022/09/08 12:47:16;;;;;;;5.45;1.20;;;;;;;;;;5046876;28;20044;-63
2022/09/08 12:49:58;;;;;;;4.20;1.33;;;;;;;;;;5053095;28;20078;-62
2022/09/08 12:52:32;;;;;;;6.97;1.20;;;;;;;;;;5051633;28;20071;-67
2022/09/08 12:55:03;;;;;;;3.45;0.98;;;;;;;;;;5049887;28;20053;-65
2022/09/08 12:57:47;;;;;;;4.72;0.93;;;;;;;;;;5024031;28;20089;-66
2022/09/08 13:00:16;;;;;;;7.22;1.08;;;;;;;;;;5028678;28;20060;-62
2022/09/08 13:02:50;;;;;;;4.45;1.05;;;;;;;;;;5025009;28;20072;-66
2022/09/08 13:05:21;;;;;;;6.25;1.15;;;;;;;;;;5010800;28;1137685;-72
2022/09/08 13:07:54;;;;;;;3.88;0.90;;;;;;;;;;5058946;28;20048;-69
2022/09/08 13:10:24;;;;;;;4.38;1.02;;;;;;;;;;5052968;28;20054;-57
2022/09/08 13:13:01;;;;;;;4.65;0.98;;;;;;;;;;5044716;28;20106;-66
2022/09/08 13:15:28;;;;;;;5.78;0.80;;;;;;;;;;5053376;28;20056;-66
2022/09/08 13:18:14;;;;;;;6.13;0.90;;;;;;;;;;5049119;28;20068;-68
2022/09/08 13:20:42;;;;;;;3.28;0.88;;;;;;;;;;5053383;28;20059;-64
2022/09/08 13:23:20;;;;;;;7.70;1.27;;;;;;;;;;5065833;28;20060;-68
2022/09/08 13:25:52;;;;;;;4.13;1.00;;;;;;;;;;5053705;28;20056;-64
2022/09/08 13:28:31;;;;;;;5.10;1.20;;;;;;;;;;5047436;28;20052;-58
2022/09/08 13:31:04;;;;;;;2.38;1.00;;;;;;;;;;5053348;28;20055;-64
2022/09/08 13:33:40;;;;;;;2.60;0.80;;;;;;;;;;5067880;28;20105;-61
2022/09/08 13:36:15;;;;;;;2.90;0.90;;;;;;;;;;5070971;28;20056;-64
2022/09/08 13:38:48;;;;;;;4.25;1.00;;;;;;;;;;5060404;28;20048;-65
2022/09/08 13:41:20;;;;;;;3.38;0.95;;;;;;;;;;5053153;28;20167;-64
2022/09/08 13:43:58;;;;;;;7.32;1.17;;;;;;;;;;5058389;28;20063;-68
2022/09/08 13:46:31;;;;;;;4.82;0.90;;;;;;;;;;5073202;28;20121;-69
2022/09/08 13:49:26;;;;;;;3.15;0.80;;;;;;;;;;5060332;28;20121;-66
2022/09/08 13:52:19;;;;;;;2.25;0.70;;;;;;;;;;5073697;28;20048;-65
2022/09/08 13:55:07;;;;;;;3.30;1.00;;;;;;;;;;5014418;28;20053;-65
2022/09/08 13:57:42;;;;;;;3.28;0.95;;;;;;;;;;5052596;28;20056;-62
2022/09/08 14:00:11;;;;;;;5.63;0.95;;;;;;;;;;5063445;28;20143;-67
2022/09/08 14:02:43;;;;;;;4.15;0.80;;;;;;;;;;5073244;28;20052;-70
2022/09/08 14:05:16;;;;;;;3.83;0.85;;;;;;;;;;5046383;28;20056;-69
2022/09/08 14:07:46;;;;;;;2.45;0.82;;;;;;;;;;5073128;28;20048;-66
2022/09/08 14:10:19;;;;;;;2.80;1.00;;;;;;;;;;5068261;28;20120;-64
2022/09/08 14:12:50;;;;;;;6.05;1.20;;;;;;;;;;5071411;28;20073;-69
2022/09/08 14:15:19;;;;;;;6.38;1.15;;;;;;;;;;5050294;28;20071;-73
2022/09/08 14:18:00;;;;;;;3.58;0.88;;;;;;;;;;5054394;28;20131;-69
2022/09/08 14:20:34;;;;;;;3.53;1.00;;;;;;;;;;5050533;28;20072;-63
2022/09/08 14:23:06;;;;;;;5.13;1.13;;;;;;;;;;5053443;28;20044;-71
2022/09/08 14:25:33;;;;;;;3.60;0.90;;;;;;;;;;5028280;28;20053;-65
2022/09/08 14:28:03;;;;;;;3.08;0.77;;;;;;;;;;5012620;28;20049;-70
2022/09/08 14:30:33;;;;;;;1.73;0.70;;;;;;;;;;5016354;28;20052;-71
2022/09/08 14:33:09;;;;;;;2.72;0.80;;;;;;;;;;5030386;28;20377;-70
2022/09/08 14:35:42;;;;;;;2.20;0.80;;;;;;;;;;5026389;28;20061;-58
2022/09/08 14:38:27;;;;;;;3.70;0.93;;;;;;;;;;5030326;28;20143;-70
2022/09/08 14:40:58;;;;;;;4.78;1.20;;;;;;;;;;5025777;28;20045;-72
2022/09/08 14:43:39;;;;;;;2.47;0.90;;;;;;;;;;5031624;28;20078;-69
2022/09/08 14:46:10;;;;;;;3.75;1.20;;;;;;;;;;5025998;28;20054;-66
2022/09/08 14:48:50;;;;;;;5.53;1.27;;;;;;;;;;5030163;28;20103;-66
2022/09/08 14:51:32;;;;;;;2.90;1.02;;;;;;;;;;5026502;28;20057;-67
2022/09/08 14:54:11;;;;;;;6.00;1.20;;;;;;;;;;5031441;28;20053;-66
2022/09/08 14:56:39;;;;;;;5.35;1.27;;;;;;;;;;5039765;28;20057;-69
2022/09/08 14:59:18;;;;;;;6.45;1.73;;;;;;;;;;5031612;28;20053;-59
2022/09/08 15:01:47;;;;;;;2.95;1.08;;;;;;;;;;5026928;28;20128;-63
2022/09/08 15:04:16;;;;;;;4.80;1.55;;;;;;;;;;5027243;28;20059;-61
2022/09/08 15:06:53;;;;;;;9.07;0.95;;;;;;;;;;5025982;28;20057;-66
2022/09/08 15:09:35;;;;;;;3.88;1.13;;;;;;;;;;5029737;28;20048;-66
2022/09/08 15:12:13;;;;;;;4.15;0.90;;;;;;;;;;5025894;28;20048;-67
2022/09/08 15:14:47;;;;;;;3.03;1.15;;;;;;;;;;5030991;28;20056;-67
2022/09/08 15:17:17;;;;;;;2.88;0.95;;;;;;;;;;5027066;28;20127;-64